WetterOnline ( https://www.wetteronline.de )

Wetter aktuell Ixelles/Elsene

Aktuelles Wetter: Chievres (63m)

6-stündlich | Neueste Meldungen
Ortszeit Temperatur Wetter
Do, 18.07. 2:00 14.8° C bedeckt
Mi, 17.07. 20:00 23.6° C fast wolkenlos
Mi, 17.07. 14:00 22.5° C wolkig
Mi, 17.07. 8:00 16.4° C bewölkt
Mi, 17.07. 2:00 16.0° C bedeckt
Di, 16.07. 20:00 18.1° C wolkig
Di, 16.07. 14:00 18.0° C wolkig
Di, 16.07. 8:00 15.7° C wolkig
Ortszeit Temperatur Wetter
Do, 18.07. 6:00 12.9° C bewölkt
Do, 18.07. 5:00 13.6° C bedeckt
Do, 18.07. 4:00 13.6° C bedeckt
Do, 18.07. 3:00 14.3° C bewölkt
Do, 18.07. 2:00 14.8° C bedeckt
Do, 18.07. 1:00 15.1° C fast wolkenlos
Do, 18.07. 0:00 16.2° C bewölkt
Ortszeit Relative Feuchte Sichtweite
Do, 18.07. 2:00 93% 25 km
Mi, 17.07. 20:00 54% 14 km
Mi, 17.07. 14:00 65% 16 km
Mi, 17.07. 8:00 91% 23 km
Mi, 17.07. 2:00 87% 16 km
Di, 16.07. 20:00 71% >70 km
Di, 16.07. 14:00 83% >70 km
Di, 16.07. 8:00 88% >70 km
Ortszeit Relative Feuchte Sichtweite
Do, 18.07. 6:00 97% 10 km
Do, 18.07. 5:00 97% 7 km
Do, 18.07. 4:00 95% 12 km
Do, 18.07. 3:00 93% 14 km
Do, 18.07. 2:00 93% 25 km
Do, 18.07. 1:00 91% 35 km
Do, 18.07. 0:00 86% 14 km
Ortszeit Niederschlagsmenge Niederschlagsart
Do, 18.07. 2:00 0.0 l/m2 in 6 Std. -
Mi, 17.07. 20:00 0.0 l/m2 in 12 Std. Sprühregen
Mi, 17.07. 14:00 0.0 l/m2 in 6 Std. -
Mi, 17.07. 8:00 0.0 l/m2 in 12 Std. -
Mi, 17.07. 2:00 0.0 l/m2 in 6 Std. -
Di, 16.07. 20:00 2 l/m2 in 12 Std. Regen
Di, 16.07. 14:00 1 l/m2 in 6 Std. Regen
Di, 16.07. 8:00 5 l/m2 in 12 Std. -
Ortszeit Niederschlagsmenge Niederschlagsart
Do, 18.07. 6:00 keine Meldung -
Do, 18.07. 5:00 keine Meldung -
Do, 18.07. 4:00 keine Meldung -
Do, 18.07. 3:00 keine Meldung -
Do, 18.07. 2:00 keine Meldung -
Do, 18.07. 1:00 keine Meldung -
Do, 18.07. 0:00 keine Meldung -
Ortszeit Stärke Spitze Richtung
km/h Bft. km/h Grad Sektor
Do, 18.07. 2:00 4 1 22 uml. uml.
Mi, 17.07. 20:00 4 1 22 uml. uml.
Mi, 17.07. 14:00 4 1 18 uml. uml.
Mi, 17.07. 8:00 7 2 18 220° SW
Mi, 17.07. 2:00 11 2 40 230° SW
Di, 16.07. 20:00 25 4 50 240° SW
Di, 16.07. 14:00 22 4 40 220° SW
Di, 16.07. 8:00 22 4 32 200° S
Ortszeit Stärke Spitze Richtung
km/h Bft. km/h Grad Sektor
Do, 18.07. 6:00 4 1 4 uml. uml.
Do, 18.07. 5:00 4 1 4 uml. uml.
Do, 18.07. 4:00 4 1 4 uml. uml.
Do, 18.07. 3:00 4 1 4 uml. uml.
Do, 18.07. 2:00 4 1 22 uml. uml.
Do, 18.07. 1:00 4 1 7 uml. uml.
Do, 18.07. 0:00 7 2 11 30° NO
Ortszeit Untergrenze Bedeckung Gattung
total tief tief mittel hoch
Do, 18.07. 2:00 3000 m - 8/8 - - -
Mi, 17.07. 20:00 1470 m - 1/8 - - -
Mi, 17.07. 14:00 840 m - 5/8 - - -
Mi, 17.07. 8:00 240 m - 7/8 - - -
Mi, 17.07. 2:00 540 m - 8/8 - - -
Di, 16.07. 20:00 810 m - 5/8 - - -
Di, 16.07. 14:00 450 m - 5/8 - - -
Di, 16.07. 8:00 780 m - 5/8 - - -
Ortszeit Bedeckungsgrad in Achtel und Wolkenuntergrenze
Do, 18.07. 6:00 3(3000m) 7(3600m)
Do, 18.07. 5:00 3(3000m) 7(3600m) 8(4200m)
Do, 18.07. 4:00 3(3000m) 7(3300m) 8(3900m)
Do, 18.07. 3:00 1(3000m) 5(3300m) 7(3900m)
Do, 18.07. 2:00 1(3000m) 5(3300m) 8(3900m)
Do, 18.07. 1:00 1(2700m) 5(3300m) 8(3900m)
Do, 18.07. 0:00 3(3000m) 7(3600m)
Ortszeit Luftdruck NN (hPa) Tendenz (hPa in 3 Std.)
Do, 18.07. 2:00 1022 - 0,1
Mi, 17.07. 20:00 1021 + 0,1
Mi, 17.07. 14:00 1021 + 0,1
Mi, 17.07. 8:00 1020 + 1,7
Mi, 17.07. 2:00 1017 + 0,5
Di, 16.07. 20:00 1015 + 1,7
Di, 16.07. 14:00 1012 + 1,2
Di, 16.07. 8:00 1011 + 1,3
Ortszeit Luftdruck NN (hPa) Tendenz (hPa in 3 Std.)
Do, 18.07. 6:00 1022 - 0,3
Do, 18.07. 5:00 1022 - 0,4
Do, 18.07. 4:00 1022 - 0,5
Do, 18.07. 3:00 1022 - 0,4
Do, 18.07. 2:00 1022 - 0,1
Do, 18.07. 1:00 1022 0,0
Do, 18.07. 0:00 1022 + 0,7
Ortszeit Schneehöhe (cm)
Do, 18.07. 2:00 -
Mi, 17.07. 20:00 -
Mi, 17.07. 14:00 -
Mi, 17.07. 8:00 -
Mi, 17.07. 2:00 -
Di, 16.07. 20:00 -
Di, 16.07. 14:00 -
Di, 16.07. 8:00 -
Ortszeit Schneehöhe (cm)
Do, 18.07. 6:00 -
Do, 18.07. 5:00 -
Do, 18.07. 4:00 -
Do, 18.07. 3:00 -
Do, 18.07. 2:00 -
Do, 18.07. 1:00 -
Do, 18.07. 0:00 -
Link zu dieser Seite / Seite empfehlen

Das Wetter in ...